Time;durP1;ratioP1;P1;durP2;ratioP2;P2;SDS_P1;SDS_P2;PMS_P1;PMS_P2;Temp;Humidity;BMP_temperature;BMP_pressure;BME280_temperature;BME280_humidity;BME280_pressure;Samples;Min_cycle;Max_cycle;Signal;HPM_P1;HPM_P2
2022/06/27 00:01:11;;;;;;;4.57;2.78;;;16.20;99.90;;;;;;5052838;28;20047;-86
2022/06/27 00:03:37;;;;;;;6.13;2.80;;;16.20;99.90;;;;;;5055354;28;20043;-86
2022/06/27 00:06:03;;;;;;;4.05;3.45;;;16.20;99.90;;;;;;5054543;28;20056;-86
2022/06/27 00:08:29;;;;;;;5.47;3.38;;;16.20;99.90;;;;;;5053917;28;20098;-86
2022/06/27 00:10:54;;;;;;;10.23;3.05;;;16.10;99.90;;;;;;5054725;28;20052;-86
2022/06/27 00:13:20;;;;;;;6.93;3.42;;;16.10;99.90;;;;;;5053713;28;20049;-86
2022/06/27 00:15:46;;;;;;;8.40;3.40;;;16.10;99.90;;;;;;5052764;28;20366;-86
2022/06/27 00:18:12;;;;;;;5.50;3.05;;;16.10;99.90;;;;;;5053040;28;20040;-86
2022/06/27 00:20:38;;;;;;;6.53;3.17;;;16.10;99.90;;;;;;5054545;28;20048;-87
2022/06/27 00:23:04;;;;;;;7.10;3.13;;;16.10;99.90;;;;;;5052347;28;20132;-86
2022/06/27 00:25:29;;;;;;;4.85;2.95;;;16.10;99.90;;;;;;5053500;28;20051;-86
2022/06/27 00:27:55;;;;;;;3.92;2.78;;;16.00;99.90;;;;;;5053316;28;20513;-87
2022/06/27 00:30:21;;;;;;;4.63;2.95;;;16.00;99.90;;;;;;5053702;28;20059;-87
2022/06/27 00:32:48;;;;;;;4.57;3.33;;;16.00;99.90;;;;;;5053348;28;20221;-87
2022/06/27 00:35:15;;;;;;;5.55;2.80;;;16.00;99.90;;;;;;5066667;28;20068;-87
2022/06/27 00:37:41;;;;;;;5.35;3.30;;;16.00;99.90;;;;;;5033429;28;20504;-86
2022/06/27 00:40:07;;;;;;;10.27;4.07;;;16.00;99.90;;;;;;5066543;28;20128;-86
2022/06/27 00:42:35;;;;;;;5.13;3.60;;;15.90;99.90;;;;;;5066228;28;20049;-86
2022/06/27 00:45:01;;;;;;;10.13;3.30;;;15.90;99.90;;;;;;5032448;28;20049;-87
2022/06/27 00:47:27;;;;;;;4.65;2.90;;;15.90;99.90;;;;;;5034047;28;20550;-87
2022/06/27 00:49:53;;;;;;;7.53;3.28;;;15.90;99.90;;;;;;5084829;28;20049;-86
2022/06/27 00:52:19;;;;;;;4.90;3.25;;;15.90;99.90;;;;;;5053646;28;20392;-87
2022/06/27 00:54:47;;;;;;;8.07;3.22;;;15.90;99.90;;;;;;5054023;28;20049;-87
2022/06/27 00:57:14;;;;;;;7.78;3.35;;;15.90;99.90;;;;;;5051799;28;20500;-87
2022/06/27 00:59:40;;;;;;;4.03;3.47;;;15.90;99.90;;;;;;5053948;28;20132;-87
2022/06/27 01:02:06;;;;;;;5.90;3.38;;;15.90;99.90;;;;;;5053906;28;20045;-87
2022/06/27 01:04:35;;;;;;;5.47;3.42;;;15.90;99.90;;;;;;5052925;28;20073;-87
2022/06/27 01:07:01;;;;;;;7.97;3.85;;;15.90;99.90;;;;;;5085519;28;20052;-87
2022/06/27 01:09:27;;;;;;;8.05;3.92;;;15.90;99.90;;;;;;5053649;28;20198;-87
2022/06/27 01:11:53;;;;;;;9.43;5.25;;;15.90;99.90;;;;;;5052923;28;20044;-87
2022/06/27 01:14:19;;;;;;;5.13;3.80;;;15.80;99.90;;;;;;5053715;28;20040;-87
2022/06/27 01:16:45;;;;;;;5.68;4.22;;;15.80;99.90;;;;;;5052515;28;20492;-87
2022/06/27 01:19:17;;;;;;;5.68;3.90;;;15.80;99.90;;;;;;5052496;28;20079;-87
2022/06/27 01:21:51;;;;;;;7.05;3.80;;;15.80;99.90;;;;;;5053693;28;20033;-86
2022/06/27 01:24:19;;;;;;;9.88;3.85;;;15.80;99.90;;;;;;5052319;28;20061;-86
2022/06/27 01:26:45;;;;;;;7.72;3.60;;;15.70;99.90;;;;;;5034769;28;20040;-87
2022/06/27 01:29:12;;;;;;;10.57;4.10;;;15.80;99.90;;;;;;5053532;28;20041;-87
2022/06/27 01:31:38;;;;;;;6.88;3.50;;;15.70;99.90;;;;;;5051676;28;20056;-87
2022/06/27 01:34:05;;;;;;;6.97;4.38;;;15.80;99.90;;;;;;5052294;28;20044;-86
2022/06/27 01:36:43;;;;;;;6.88;3.90;;;15.70;99.90;;;;;;5053464;28;20044;-87
2022/06/27 01:39:14;;;;;;;8.13;3.75;;;15.70;99.90;;;;;;5051515;28;20403;-87
2022/06/27 01:42:06;;;;;;;6.93;4.22;;;15.70;99.90;;;;;;5053070;28;20382;-87
2022/06/27 01:44:33;;;;;;;6.50;3.88;;;15.70;99.90;;;;;;5083779;28;20400;-87
2022/06/27 01:46:59;;;;;;;12.90;4.30;;;15.70;99.90;;;;;;5050960;28;20132;-87
2022/06/27 01:49:25;;;;;;;7.45;4.75;;;15.70;99.90;;;;;;5052638;28;20186;-87
2022/06/27 01:51:51;;;;;;;5.38;4.03;;;15.70;99.90;;;;;;5053154;28;20041;-87
2022/06/27 01:54:20;;;;;;;5.93;4.30;;;15.70;99.90;;;;;;5084902;28;20048;-87
2022/06/27 01:56:46;;;;;;;6.78;4.50;;;15.70;99.90;;;;;;5051647;28;20499;-87
2022/06/27 01:59:14;;;;;;;7.45;4.88;;;15.70;99.90;;;;;;5053177;28;20045;-87
2022/06/27 02:01:41;;;;;;;8.15;4.50;;;15.70;99.90;;;;;;5052228;28;20041;-87
2022/06/27 02:04:09;;;;;;;8.18;5.10;;;15.70;99.90;;;;;;5051741;28;20488;-86
2022/06/27 02:06:35;;;;;;;7.20;4.80;;;15.70;99.90;;;;;;5034545;28;20084;-86
2022/06/27 02:09:05;;;;;;;6.88;4.35;;;15.70;99.90;;;;;;5034313;28;20084;-86
2022/06/27 02:11:31;;;;;;;7.50;5.60;;;15.80;99.90;;;;;;5053078;28;20128;-86
2022/06/27 02:13:57;;;;;;;9.25;5.47;;;15.80;99.90;;;;;;5053121;28;20059;-86
2022/06/27 02:16:24;;;;;;;7.70;4.97;;;15.80;99.90;;;;;;5051089;28;20056;-86
2022/06/27 02:18:50;;;;;;;8.68;5.90;;;15.80;99.90;;;;;;5051841;28;20041;-86
2022/06/27 02:21:22;;;;;;;8.07;5.72;;;15.80;99.90;;;;;;5051811;28;20485;-86
2022/06/27 02:23:49;;;;;;;8.23;6.03;;;15.80;99.90;;;;;;5051668;28;20558;-86
2022/06/27 02:26:15;;;;;;;7.43;5.45;;;15.80;99.90;;;;;;5053021;28;20045;-86
2022/06/27 02:28:43;;;;;;;9.68;5.47;;;15.80;99.90;;;;;;5050680;28;20059;-86
2022/06/27 02:31:09;;;;;;;9.10;6.20;;;15.80;99.90;;;;;;5085197;28;20388;-86
2022/06/27 02:33:38;;;;;;;6.22;5.30;;;15.80;99.90;;;;;;5051516;28;20053;-86
2022/06/27 02:36:05;;;;;;;10.05;5.47;;;15.80;99.90;;;;;;5050581;28;20139;-86
2022/06/27 02:38:32;;;;;;;9.57;5.75;;;15.80;99.90;;;;;;5051627;28;20052;-86
2022/06/27 02:41:01;;;;;;;10.15;6.18;;;15.80;99.90;;;;;;5051689;28;20052;-86
2022/06/27 02:43:33;;;;;;;11.27;6.18;;;15.80;99.90;;;;;;5051453;28;20056;-86
2022/06/27 02:45:59;;;;;;;7.38;5.70;;;15.80;99.90;;;;;;5055342;28;20048;-86
2022/06/27 02:48:30;;;;;;;8.60;6.07;;;15.80;99.90;;;;;;5055204;28;20361;-86
2022/06/27 02:50:59;;;;;;;10.10;6.20;;;15.80;99.90;;;;;;5054302;28;20052;-85
2022/06/27 02:53:42;;;;;;;8.25;4.88;;;15.80;99.90;;;;;;5055397;28;20544;-86
2022/06/27 02:56:10;;;;;;;7.70;5.95;;;15.80;99.90;;;;;;5056097;28;20052;-85
2022/06/27 02:58:42;;;;;;;8.07;5.78;;;15.80;99.90;;;;;;5055300;28;20045;-85
2022/06/27 03:01:10;;;;;;;8.57;5.13;;;15.80;99.90;;;;;;5054856;28;20049;-85
2022/06/27 03:03:39;;;;;;;7.07;5.80;;;15.80;99.90;;;;;;5053436;28;20664;-85
2022/06/27 03:06:10;;;;;;;8.90;5.18;;;15.90;99.90;;;;;;5055765;28;20092;-86
2022/06/27 03:08:39;;;;;;;8.30;6.18;;;15.80;99.90;;;;;;5055896;28;20114;-86
2022/06/27 03:11:05;;;;;;;6.50;5.75;;;15.80;99.90;;;;;;5055019;28;20041;-85
2022/06/27 03:13:31;;;;;;;8.43;5.47;;;15.80;99.90;;;;;;5055755;28;20052;-85
2022/06/27 03:15:57;;;;;;;8.57;5.68;;;15.80;99.90;;;;;;5087972;28;20037;-86
2022/06/27 03:18:22;;;;;;;7.47;5.70;;;15.80;99.90;;;;;;5054854;28;20049;-86
2022/06/27 03:20:48;;;;;;;7.55;5.10;;;15.80;99.90;;;;;;5055669;28;20124;-86
2022/06/27 03:23:15;;;;;;;7.75;5.20;;;15.70;99.90;;;;;;5037698;28;20136;-86
2022/06/27 03:25:41;;;;;;;8.55;5.10;;;15.70;99.90;;;;;;5054601;28;20060;-86
2022/06/27 03:28:07;;;;;;;6.88;5.20;;;15.70;99.90;;;;;;5055317;28;20056;-86
2022/06/27 03:30:33;;;;;;;6.90;5.18;;;15.70;99.90;;;;;;5054064;28;20416;-85
2022/06/27 03:32:59;;;;;;;6.68;5.05;;;15.70;99.90;;;;;;5054671;28;20186;-86
2022/06/27 03:35:25;;;;;;;6.80;6.00;;;15.70;99.90;;;;;;5054200;28;20508;-86
2022/06/27 03:37:52;;;;;;;9.32;6.13;;;15.70;99.90;;;;;;5054261;28;20373;-86
2022/06/27 03:40:18;;;;;;;8.73;6.22;;;15.70;99.90;;;;;;5053177;28;20056;-86
2022/06/27 03:42:43;;;;;;;9.85;5.57;;;15.70;99.90;;;;;;5087413;28;20397;-86
2022/06/27 03:45:10;;;;;;;9.07;6.05;;;15.70;99.90;;;;;;5054164;28;20079;-86
2022/06/27 03:47:52;;;;;;;9.52;6.10;;;15.70;99.90;;;;;;5054481;28;20090;-85
2022/06/27 03:50:19;;;;;;;7.30;5.85;;;15.70;99.90;;;;;;5054987;28;20396;-85
2022/06/27 03:52:46;;;;;;;11.02;6.45;;;15.80;99.90;;;;;;5054349;28;20056;-84
2022/06/27 03:55:12;;;;;;;9.07;6.13;;;15.80;99.90;;;;;;5036915;28;20400;-84
2022/06/27 03:57:45;;;;;;;9.13;5.60;;;15.80;99.90;;;;;;5053937;28;20044;-84
2022/06/27 04:00:11;;;;;;;15.00;7.32;;;15.80;99.90;;;;;;5054193;28;20045;-86
2022/06/27 04:02:37;;;;;;;9.50;7.10;;;15.80;99.90;;;;;;5054905;28;20499;-84
2022/06/27 04:05:03;;;;;;;12.70;8.68;;;15.80;99.90;;;;;;5054959;28;20045;-85
2022/06/27 04:07:29;;;;;;;10.70;8.07;;;15.90;99.90;;;;;;5053809;28;20457;-86
2022/06/27 04:09:56;;;;;;;7.57;5.55;;;15.90;99.90;;;;;;5053443;28;20127;-85
2022/06/27 04:12:22;;;;;;;10.10;7.88;;;15.90;99.90;;;;;;5053191;28;20484;-85
2022/06/27 04:14:48;;;;;;;13.10;7.57;;;15.90;99.90;;;;;;5053851;28;20115;-85
2022/06/27 04:17:13;;;;;;;12.57;8.07;;;15.90;99.90;;;;;;5054630;28;20516;-86
2022/06/27 04:19:39;;;;;;;8.63;7.65;;;16.00;99.90;;;;;;5053273;28;20504;-86
2022/06/27 04:22:05;;;;;;;9.98;7.57;;;16.00;99.90;;;;;;5053615;28;20132;-86
2022/06/27 04:24:31;;;;;;;10.82;8.23;;;16.00;99.90;;;;;;5053057;28;20048;-85
2022/06/27 04:26:57;;;;;;;15.07;9.73;;;16.00;99.90;;;;;;5053065;28;20033;-85
2022/06/27 04:29:23;;;;;;;10.48;8.95;;;16.00;99.90;;;;;;5053411;28;20053;-85
2022/06/27 04:31:49;;;;;;;12.32;10.60;;;16.10;99.90;;;;;;5054316;28;20117;-86
2022/06/27 04:34:15;;;;;;;11.85;9.95;;;16.10;99.90;;;;;;5036371;28;20052;-86
2022/06/27 04:36:41;;;;;;;16.08;11.27;;;16.10;99.90;;;;;;5052136;28;20037;-86
2022/06/27 04:39:07;;;;;;;11.00;9.90;;;16.10;99.90;;;;;;5054682;28;20037;-86
2022/06/27 04:41:34;;;;;;;10.05;8.65;;;16.20;99.90;;;;;;5052825;28;20040;-86
2022/06/27 04:44:00;;;;;;;10.25;8.60;;;16.10;99.90;;;;;;5053354;28;20064;-86
2022/06/27 04:46:25;;;;;;;12.38;9.77;;;16.20;99.90;;;;;;5053137;28;20053;-86
2022/06/27 04:48:51;;;;;;;11.65;10.52;;;16.20;99.90;;;;;;5053045;28;20401;-87
2022/06/27 04:51:17;;;;;;;16.70;11.40;;;16.20;99.90;;;;;;5052751;28;20053;-84
2022/06/27 04:53:44;;;;;;;10.90;9.80;;;16.20;99.90;;;;;;5035927;28;20083;-86
2022/06/27 04:56:11;;;;;;;10.70;7.88;;;16.20;99.90;;;;;;5052538;28;20041;-85
2022/06/27 04:58:37;;;;;;;11.80;7.88;;;16.30;99.90;;;;;;5052623;28;20053;-86
2022/06/27 05:01:03;;;;;;;10.63;9.63;;;16.30;99.90;;;;;;5067394;28;20048;-85
2022/06/27 05:03:29;;;;;;;14.70;10.63;;;16.30;99.90;;;;;;5087458;28;20084;-84
2022/06/27 05:05:55;;;;;;;14.25;12.32;;;16.30;99.90;;;;;;5044052;28;20077;-84
2022/06/27 05:08:21;;;;;;;16.30;13.63;;;16.40;99.90;;;;;;5063636;28;20087;-85
2022/06/27 05:10:47;;;;;;;22.08;14.48;;;16.50;99.90;;;;;;5050916;28;20053;-84
2022/06/27 05:13:13;;;;;;;22.02;14.85;;;16.50;99.90;;;;;;5053658;28;20040;-84
2022/06/27 05:15:39;;;;;;;17.00;15.13;;;16.60;99.90;;;;;;5053663;28;20044;-84
2022/06/27 05:18:06;;;;;;;15.80;13.52;;;16.60;99.90;;;;;;5051498;28;20059;-84
2022/06/27 05:20:32;;;;;;;17.25;13.23;;;16.60;99.90;;;;;;5053441;28;20037;-84
2022/06/27 05:23:00;;;;;;;19.50;14.88;;;16.70;99.90;;;;;;5052287;28;20511;-85
2022/06/27 05:25:26;;;;;;;16.52;13.98;;;16.70;99.90;;;;;;5051119;28;20049;-84
2022/06/27 05:27:52;;;;;;;16.88;15.05;;;16.80;99.90;;;;;;5052804;28;20041;-84
2022/06/27 05:30:18;;;;;;;17.08;14.63;;;16.80;99.90;;;;;;5053561;28;20076;-84
2022/06/27 05:32:44;;;;;;;21.35;15.73;;;16.80;99.90;;;;;;5047909;28;20071;-84
2022/06/27 05:35:10;;;;;;;17.75;15.73;;;16.90;99.90;;;;;;5032434;28;20041;-84
2022/06/27 05:37:38;;;;;;;17.67;15.88;;;16.90;99.90;;;;;;5036600;28;20037;-85
2022/06/27 05:40:06;;;;;;;24.60;16.95;;;17.00;99.90;;;;;;5052134;28;20159;-84
2022/06/27 05:42:35;;;;;;;21.75;17.70;;;17.10;99.90;;;;;;5051931;28;20548;-85
2022/06/27 05:45:03;;;;;;;21.27;17.15;;;17.10;99.90;;;;;;5048190;28;20084;-84
2022/06/27 05:47:30;;;;;;;18.55;16.63;;;17.20;99.90;;;;;;5032506;28;20405;-85
2022/06/27 05:49:58;;;;;;;19.70;17.70;;;17.20;99.90;;;;;;5033033;28;20052;-85
2022/06/27 05:52:23;;;;;;;20.25;15.85;;;17.20;99.90;;;;;;5031490;28;20487;-85
2022/06/27 05:54:49;;;;;;;17.13;15.43;;;17.30;99.90;;;;;;5085642;28;20040;-83
2022/06/27 05:57:15;;;;;;;17.90;16.00;;;17.40;99.90;;;;;;5052952;28;20546;-86
2022/06/27 05:59:42;;;;;;;19.23;15.60;;;17.40;99.90;;;;;;5031096;28;20051;-84
2022/06/27 06:02:08;;;;;;;16.45;14.50;;;17.50;99.90;;;;;;5053056;28;20045;-84
2022/06/27 06:04:34;;;;;;;15.85;13.95;;;17.50;99.90;;;;;;5054606;28;20041;-84
2022/06/27 06:07:00;;;;;;;19.73;13.60;;;17.50;99.90;;;;;;5080264;28;20046;-84
2022/06/27 06:09:26;;;;;;;18.50;14.02;;;17.50;99.90;;;;;;5065367;28;20049;-85
2022/06/27 06:11:53;;;;;;;14.90;13.40;;;17.50;99.90;;;;;;5053498;28;20143;-84
2022/06/27 06:14:21;;;;;;;15.15;13.07;;;17.50;99.90;;;;;;5031092;28;20045;-86
2022/06/27 06:16:49;;;;;;;14.55;13.07;;;17.50;99.90;;;;;;5015361;28;20038;-84
2022/06/27 06:19:16;;;;;;;15.00;12.40;;;17.50;99.90;;;;;;5045180;28;20145;-84
2022/06/27 06:21:45;;;;;;;10.63;9.73;;;17.50;99.90;;;;;;5044499;28;20068;-84
2022/06/27 06:24:14;;;;;;;10.25;8.05;;;17.50;99.90;;;;;;5058117;28;20489;-85
2022/06/27 06:26:41;;;;;;;7.97;7.03;;;17.50;99.90;;;;;;5038574;28;20052;-86
2022/06/27 06:29:14;;;;;;;9.75;6.57;;;17.50;99.90;;;;;;5037976;28;20056;-84
2022/06/27 06:31:43;;;;;;;9.00;6.00;;;17.50;99.90;;;;;;5045691;28;20053;-84
2022/06/27 06:34:10;;;;;;;10.52;5.65;;;17.50;99.90;;;;;;5073731;28;20054;-85
2022/06/27 06:36:38;;;;;;;8.93;7.18;;;17.60;99.90;;;;;;5043364;28;20392;-84
2022/06/27 06:39:05;;;;;;;7.07;5.43;;;17.60;99.90;;;;;;5055322;28;20393;-84
2022/06/27 06:41:32;;;;;;;5.30;4.70;;;17.60;99.90;;;;;;5056222;28;20041;-84
2022/06/27 06:43:59;;;;;;;6.80;4.10;;;17.60;99.90;;;;;;5056294;28;20041;-84
2022/06/27 06:46:27;;;;;;;6.60;4.80;;;17.60;99.90;;;;;;5046033;28;20056;-84
2022/06/27 06:48:58;;;;;;;7.78;4.72;;;17.60;99.90;;;;;;5054383;28;20408;-84
2022/06/27 06:51:24;;;;;;;6.80;4.40;;;17.60;99.90;;;;;;5056400;28;20052;-84
2022/06/27 06:53:52;;;;;;;5.50;4.13;;;17.50;99.90;;;;;;5055365;28;20500;-84
2022/06/27 06:56:18;;;;;;;6.75;4.63;;;17.60;99.90;;;;;;5043776;28;20037;-84
2022/06/27 06:58:44;;;;;;;5.60;4.05;;;17.50;99.90;;;;;;5068103;28;20048;-84
2022/06/27 07:01:10;;;;;;;7.80;4.68;;;17.60;99.90;;;;;;5055091;28;20109;-84
2022/06/27 07:03:35;;;;;;;7.40;4.50;;;17.60;99.90;;;;;;5053047;28;20116;-85
2022/06/27 07:06:05;;;;;;;4.88;4.07;;;17.60;99.90;;;;;;5087588;28;20049;-84
2022/06/27 07:08:31;;;;;;;6.13;4.57;;;17.60;99.90;;;;;;5088544;28;20045;-84
2022/06/27 07:10:58;;;;;;;4.78;3.63;;;17.60;99.90;;;;;;5086470;28;20060;-84
2022/06/27 07:13:24;;;;;;;4.30;3.53;;;17.60;99.90;;;;;;5073773;28;20393;-84
2022/06/27 07:15:51;;;;;;;3.45;3.00;;;17.70;99.90;;;;;;5067653;28;20123;-84
2022/06/27 07:18:17;;;;;;;4.63;3.53;;;17.70;99.90;;;;;;5081456;28;20037;-84
2022/06/27 07:20:43;;;;;;;4.95;4.05;;;17.80;99.90;;;;;;5055329;28;20056;-84
2022/06/27 07:23:10;;;;;;;5.40;3.22;;;17.80;99.90;;;;;;5053709;28;20049;-84
2022/06/27 07:25:36;;;;;;;5.57;4.18;;;17.90;99.90;;;;;;5053006;28;20064;-84
2022/06/27 07:28:03;;;;;;;7.45;4.68;;;18.00;99.90;;;;;;5065047;28;20445;-85
2022/06/27 07:30:29;;;;;;;4.68;3.83;;;18.00;99.90;;;;;;5053453;28;20059;-86
2022/06/27 07:32:55;;;;;;;7.57;3.97;;;17.90;99.90;;;;;;5038427;28;20481;-87
2022/06/27 07:35:22;;;;;;;6.50;3.95;;;17.90;99.90;;;;;;5067729;28;20045;-83
2022/06/27 07:37:48;;;;;;;5.68;4.07;;;17.90;99.90;;;;;;5053584;28;20443;-86
2022/06/27 07:40:22;;;;;;;6.13;3.85;;;17.90;99.90;;;;;;5054998;28;20102;-85
2022/06/27 07:42:50;;;;;;;8.03;4.33;;;17.90;99.90;;;;;;5023397;28;20544;-85
2022/06/27 07:45:18;;;;;;;5.13;4.72;;;17.90;99.90;;;;;;5036869;28;20048;-84
2022/06/27 07:47:46;;;;;;;7.63;5.07;;;17.80;99.90;;;;;;5051515;28;20083;-85
2022/06/27 07:50:36;;;;;;;5.90;4.68;;;17.80;99.90;;;;;;5077297;28;20124;-84
2022/06/27 07:53:12;;;;;;;7.90;5.53;;;17.80;99.90;;;;;;5034248;28;20140;-85
2022/06/27 07:55:40;;;;;;;5.47;4.35;;;17.80;99.90;;;;;;5067588;28;20124;-85
2022/06/27 07:58:07;;;;;;;6.35;4.30;;;17.80;99.90;;;;;;5034925;28;20409;-83
2022/06/27 08:00:34;;;;;;;4.97;3.80;;;17.80;99.90;;;;;;5091182;28;20053;-84
2022/06/27 08:03:36;;;;;;;4.78;4.05;;;17.80;99.90;;;;;;5087445;28;20413;-84
2022/06/27 08:05:47;;;;;;;4.47;4.07;;;17.90;99.90;;;;;;5054000;28;20053;-84
2022/06/27 08:08:12;;;;;;;5.78;3.83;;;17.90;99.90;;;;;;5087633;28;20042;-84
2022/06/27 08:10:38;;;;;;;6.15;3.80;;;17.90;99.90;;;;;;5054855;28;20048;-84
2022/06/27 08:13:06;;;;;;;5.05;4.53;;;17.90;99.90;;;;;;5086373;28;20045;-84
2022/06/27 08:15:32;;;;;;;6.03;4.55;;;18.00;99.90;;;;;;5086300;28;20154;-83
2022/06/27 08:17:58;;;;;;;7.20;5.95;;;18.10;99.90;;;;;;5054489;28;20108;-84
2022/06/27 08:20:25;;;;;;;7.07;6.35;;;18.10;99.90;;;;;;5052556;28;20052;-84
2022/06/27 08:22:51;;;;;;;6.75;5.22;;;18.10;99.90;;;;;;5053426;28;20053;-84
2022/06/27 08:25:17;;;;;;;5.40;4.90;;;18.20;99.90;;;;;;5053309;28;20484;-84
2022/06/27 08:27:45;;;;;;;5.90;5.20;;;18.20;99.90;;;;;;5052614;28;20124;-84
2022/06/27 08:30:14;;;;;;;7.68;6.05;;;18.30;99.90;;;;;;5052733;28;20247;-84
2022/06/27 08:32:41;;;;;;;9.55;5.78;;;18.30;99.90;;;;;;5054241;28;20132;-84
2022/06/27 08:35:08;;;;;;;7.93;4.97;;;18.30;99.90;;;;;;5053445;28;20056;-84
2022/06/27 08:37:34;;;;;;;6.13;4.90;;;18.30;99.90;;;;;;5052803;28;20123;-84
2022/06/27 08:40:04;;;;;;;6.00;4.70;;;18.30;99.90;;;;;;5054336;28;20400;-84
2022/06/27 08:42:30;;;;;;;6.47;5.18;;;18.30;99.90;;;;;;5052345;28;20052;-85
2022/06/27 08:44:57;;;;;;;10.60;6.15;;;18.30;99.90;;;;;;5052846;28;20056;-85
2022/06/27 08:47:23;;;;;;;10.48;5.72;;;18.30;99.90;;;;;;5053614;28;20412;-85
2022/06/27 08:49:52;;;;;;;6.15;5.53;;;18.30;99.90;;;;;;5052815;28;20085;-85
2022/06/27 08:52:19;;;;;;;6.82;6.03;;;18.30;99.90;;;;;;5054047;28;20049;-86
2022/06/27 08:54:45;;;;;;;9.93;5.93;;;18.30;99.90;;;;;;5054085;28;20048;-86
2022/06/27 08:57:11;;;;;;;7.88;6.25;;;18.30;99.90;;;;;;5053214;28;20045;-85
2022/06/27 08:59:37;;;;;;;7.57;6.32;;;18.40;99.90;;;;;;5053844;28;20040;-85
2022/06/27 09:02:04;;;;;;;6.97;6.30;;;18.50;99.90;;;;;;5052992;28;20587;-85
2022/06/27 09:04:47;;;;;;;8.07;7.07;;;18.60;99.90;;;;;;5052220;28;20049;-85
2022/06/27 09:07:13;;;;;;;8.55;7.07;;;18.70;99.90;;;;;;5052212;28;20503;-85
2022/06/27 09:09:40;;;;;;;8.07;6.57;;;18.70;99.90;;;;;;5051697;28;20053;-85
2022/06/27 09:12:06;;;;;;;7.57;6.78;;;18.70;99.90;;;;;;5053802;28;20116;-87
2022/06/27 09:14:42;;;;;;;9.82;6.60;;;18.70;99.90;;;;;;5052430;28;20045;-85
2022/06/27 09:17:14;;;;;;;7.97;6.93;;;18.80;99.90;;;;;;5051510;28;20077;-87
2022/06/27 09:19:58;;;;;;;7.80;6.20;;;18.80;99.90;;;;;;5053376;28;20045;-85
2022/06/27 09:22:28;;;;;;;8.15;6.30;;;18.90;99.90;;;;;;5052484;28;20052;-85
2022/06/27 09:25:06;;;;;;;7.72;6.72;;;18.90;99.90;;;;;;5051570;28;20049;-85
2022/06/27 09:27:42;;;;;;;8.35;6.45;;;19.00;99.90;;;;;;5053346;28;20107;-84
2022/06/27 09:30:22;;;;;;;8.80;7.00;;;19.10;99.90;;;;;;5052816;28;20068;-85
2022/06/27 09:32:53;;;;;;;9.02;7.18;;;19.10;99.90;;;;;;5053214;28;20116;-85
2022/06/27 09:35:27;;;;;;;8.07;7.05;;;19.10;99.90;;;;;;5053327;28;20040;-85
2022/06/27 09:37:55;;;;;;;9.32;7.53;;;19.10;99.90;;;;;;5051651;28;20063;-84
2022/06/27 09:40:26;;;;;;;9.32;6.85;;;19.20;99.90;;;;;;5052281;28;20127;-84
2022/06/27 09:42:57;;;;;;;9.88;6.43;;;19.20;99.90;;;;;;5052027;28;20045;-85
2022/06/27 09:45:25;;;;;;;10.07;6.57;;;19.30;99.90;;;;;;5052560;28;20400;-84
2022/06/27 09:48:02;;;;;;;9.98;6.72;;;19.30;99.90;;;;;;5052075;28;20037;-85
2022/06/27 09:50:32;;;;;;;6.95;5.88;;;19.40;99.90;;;;;;5053034;28;20124;-85
2022/06/27 09:52:59;;;;;;;11.48;5.95;;;19.40;99.90;;;;;;5053229;28;20120;-85
2022/06/27 09:55:27;;;;;;;8.65;5.82;;;19.50;99.90;;;;;;5039368;28;20132;-86
2022/06/27 09:57:55;;;;;;;9.23;6.50;;;19.50;99.90;;;;;;5057414;28;20140;-84
2022/06/27 10:00:22;;;;;;;10.45;7.18;;;19.60;99.90;;;;;;5055376;28;20045;-85
2022/06/27 10:02:49;;;;;;;7.95;6.15;;;19.60;99.90;;;;;;5055704;28;20048;-85
2022/06/27 10:05:16;;;;;;;6.88;6.25;;;19.70;99.90;;;;;;5039253;28;20084;-85
2022/06/27 10:07:51;;;;;;;11.05;7.03;;;19.70;99.90;;;;;;5056383;28;20524;-85
2022/06/27 10:10:17;;;;;;;8.75;6.50;;;19.60;99.90;;;;;;5055821;28;20057;-85
2022/06/27 10:12:59;;;;;;;6.65;5.93;;;19.60;99.90;;;;;;5056260;28;20049;-85
2022/06/27 10:15:28;;;;;;;9.15;6.10;;;19.60;99.90;;;;;;5057116;28;20468;-85
2022/06/27 10:17:56;;;;;;;9.57;6.22;;;19.60;99.90;;;;;;5055806;28;20151;-84
2022/06/27 10:20:39;;;;;;;8.38;5.70;;;19.60;99.90;;;;;;5055052;28;20036;-84
2022/06/27 10:23:13;;;;;;;7.40;5.57;;;19.60;99.90;;;;;;5055664;28;20163;-84
2022/06/27 10:25:44;;;;;;;7.40;5.68;;;19.60;99.90;;;;;;5056861;28;20047;-84
2022/06/27 10:28:13;;;;;;;7.85;5.50;;;19.50;99.90;;;;;;5055807;28;20055;-84
2022/06/27 10:30:45;;;;;;;7.07;5.50;;;19.50;99.90;;;;;;5055623;28;20045;-84
2022/06/27 10:33:23;;;;;;;6.25;5.63;;;19.60;99.90;;;;;;5056619;28;20098;-84
2022/06/27 10:38:53;;;;;;;6.72;4.72;;;19.60;99.90;;;;;;5046441;28;20056;-84
2022/06/27 10:41:18;;;;;;;8.25;5.22;;;19.60;99.90;;;;;;5054527;28;20049;-84
2022/06/27 10:43:48;;;;;;;8.07;5.32;;;19.60;99.90;;;;;;5055232;28;20439;-85
2022/06/27 10:46:16;;;;;;;5.65;4.05;;;19.60;99.90;;;;;;5038510;28;20485;-85
2022/06/27 10:48:47;;;;;;;7.13;4.30;;;19.60;99.90;;;;;;5037755;28;20044;-85
2022/06/27 10:51:28;;;;;;;6.20;4.00;;;19.50;99.90;;;;;;5055006;28;20052;-84
2022/06/27 10:54:06;;;;;;;8.27;4.13;;;19.40;99.90;;;;;;5055039;28;20136;-84
2022/06/27 10:56:39;;;;;;;6.32;4.13;;;19.40;99.90;;;;;;5054322;28;20037;-84
2022/06/27 10:59:14;;;;;;;6.53;4.10;;;19.40;99.90;;;;;;5056308;28;20126;-84
2022/06/27 11:01:58;;;;;;;5.15;3.90;;;19.40;99.90;;;;;;5053927;28;20049;-84
2022/06/27 11:04:35;;;;;;;7.93;4.40;;;19.40;99.90;;;;;;5037273;28;20080;-85
2022/06/27 11:07:09;;;;;;;5.53;4.80;;;19.40;99.90;;;;;;5055594;28;20049;-85
2022/06/27 11:09:35;;;;;;;;;;;19.40;99.90;;;;;;5054184;28;20564;-84
2022/06/27 11:12:01;;;;;;;9.35;5.40;;;19.40;99.90;;;;;;5055707;28;20004;-85
2022/06/27 11:14:27;;;;;;;7.22;4.60;;;19.40;99.90;;;;;;5055686;28;20045;-85
2022/06/27 11:16:52;;;;;;;10.27;4.85;;;19.50;99.90;;;;;;5054914;28;20048;-85
2022/06/27 11:22:26;;;;;;;5.70;3.90;;;19.70;99.90;;;;;;5055809;28;20047;-85
2022/06/27 11:24:53;;;;;;;5.25;4.50;;;19.80;99.90;;;;;;5053619;28;20057;-85
2022/06/27 11:27:22;;;;;;;7.22;4.93;;;19.90;99.90;;;;;;5055721;28;20076;-84
2022/06/27 11:32:35;;;;;;;5.85;4.30;;;20.00;99.90;;;;;;5042327;28;20135;-84
2022/06/27 11:35:01;;;;;;;7.03;4.60;;;20.00;99.90;;;;;;5054146;28;20128;-84
2022/06/27 11:37:30;;;;;;;8.95;5.18;;;20.00;99.90;;;;;;5054765;28;20048;-83
2022/06/27 11:40:04;;;;;;;8.25;4.90;;;20.00;99.90;;;;;;5037551;28;20052;-85
2022/06/27 11:42:31;;;;;;;;;;;20.00;99.90;;;;;;5056082;28;20055;-85
2022/06/27 11:45:10;;;;;;;13.18;4.75;;;20.00;99.90;;;;;;5054440;28;19974;-85
2022/06/27 11:47:39;;;;;;;6.88;5.18;;;20.00;99.90;;;;;;5037449;28;20045;-85
2022/06/27 11:50:11;;;;;;;6.75;4.97;;;20.10;99.90;;;;;;5053946;28;20451;-84
2022/06/27 11:52:39;;;;;;;7.15;5.13;;;20.20;99.90;;;;;;5054480;28;20120;-84
2022/06/27 11:55:11;;;;;;;5.85;4.28;;;20.20;99.90;;;;;;5055246;28;20049;-84
2022/06/27 11:57:43;;;;;;;7.38;4.55;;;20.30;99.90;;;;;;5037483;28;20045;-84
2022/06/27 12:00:34;;;;;;;10.80;4.70;;;20.40;99.90;;;;;;5053204;28;20037;-83
2022/06/27 12:03:07;;;;;;;6.80;4.68;;;20.50;99.90;;;;;;5035142;28;20049;-84
2022/06/27 12:05:34;;;;;;;7.38;3.70;;;20.50;99.90;;;;;;5033938;28;20108;-83
2022/06/27 12:08:09;;;;;;;5.93;4.03;;;20.60;99.90;;;;;;5034914;28;20053;-84
2022/06/27 12:10:41;;;;;;;10.00;3.90;;;20.50;99.90;;;;;;5033653;28;20053;-83
2022/06/27 12:13:11;;;;;;;6.95;3.30;;;20.50;99.90;;;;;;5034171;28;20041;-84
2022/06/27 12:15:38;;;;;;;8.02;3.47;;;20.60;99.90;;;;;;5039391;28;20037;-83
2022/06/27 12:18:06;;;;;;;5.05;3.40;;;20.60;99.90;;;;;;5053765;28;20445;-84
2022/06/27 12:20:33;;;;;;;9.20;3.20;;;20.60;99.90;;;;;;5053704;28;20574;-84
2022/06/27 12:23:00;;;;;;;7.50;2.85;;;20.60;99.90;;;;;;5053594;28;20052;-83
2022/06/27 12:25:27;;;;;;;9.18;3.72;;;20.60;99.90;;;;;;5054622;28;20056;-83
2022/06/27 12:27:53;;;;;;;5.60;3.20;;;20.70;99.90;;;;;;5052754;28;20401;-85
2022/06/27 12:30:19;;;;;;;7.28;3.08;;;20.70;99.90;;;;;;5086328;28;20064;-84
2022/06/27 12:32:45;;;;;;;4.93;2.80;;;20.70;99.90;;;;;;5054280;28;20033;-83
2022/06/27 12:35:12;;;;;;;5.80;2.72;;;20.70;99.90;;;;;;5053318;28;20131;-84
2022/06/27 12:37:38;;;;;;;6.68;2.83;;;20.70;99.90;;;;;;5054417;28;20048;-84
2022/06/27 12:40:06;;;;;;;5.70;3.15;;;20.70;99.90;;;;;;5053549;28;20037;-84
2022/06/27 12:42:32;;;;;;;5.38;3.38;;;20.70;99.90;;;;;;5053214;28;20396;-84
2022/06/27 12:44:58;;;;;;;6.18;2.72;;;20.70;99.90;;;;;;5084692;28;20447;-84
2022/06/27 12:47:24;;;;;;;3.95;2.80;;;20.70;99.90;;;;;;5053834;28;20044;-83
2022/06/27 12:49:50;;;;;;;5.43;2.20;;;20.80;99.90;;;;;;5039913;28;20049;-84
2022/06/27 12:52:16;;;;;;;7.50;3.13;;;20.70;99.90;;;;;;5033964;28;20060;-84
2022/06/27 12:54:43;;;;;;;4.55;2.67;;;20.70;99.90;;;;;;5033896;28;20132;-84
2022/06/27 12:57:13;;;;;;;5.22;2.60;;;20.70;99.90;;;;;;5066142;28;20111;-83